sensor_id;sensor_type;location;lat;lon;timestamp;pressure;altitude;pressure_sealevel;temperature;humidity
51245;BME280;37840;47.562;18.738;2023-04-01T00:00:24;98361.03;;;9.67;88.94
51245;BME280;37840;47.562;18.738;2023-04-01T00:02:50;98355.59;;;9.58;88.84
51245;BME280;37840;47.562;18.738;2023-04-01T00:05:16;98356.72;;;9.66;89.10
51245;BME280;37840;47.562;18.738;2023-04-01T00:07:43;98362.28;;;9.63;89.07
51245;BME280;37840;47.562;18.738;2023-04-01T00:10:11;98363.84;;;9.65;88.95
51245;BME280;37840;47.562;18.738;2023-04-01T00:12:38;98365.50;;;9.66;88.58
51245;BME280;37840;47.562;18.738;2023-04-01T00:15:06;98364.56;;;9.67;88.22
51245;BME280;37840;47.562;18.738;2023-04-01T00:17:32;98356.44;;;9.59;87.50
51245;BME280;37840;47.562;18.738;2023-04-01T00:19:58;98365.50;;;9.56;86.94
51245;BME280;37840;47.562;18.738;2023-04-01T00:22:25;98362.69;;;9.58;86.71
51245;BME280;37840;47.562;18.738;2023-04-01T00:24:52;98368.44;;;9.63;87.62
51245;BME280;37840;47.562;18.738;2023-04-01T00:27:18;98370.13;;;9.64;87.71
51245;BME280;37840;47.562;18.738;2023-04-01T00:29:46;98361.03;;;9.67;88.21
51245;BME280;37840;47.562;18.738;2023-04-01T00:32:13;98361.91;;;9.67;88.28
51245;BME280;37840;47.562;18.738;2023-04-01T00:34:40;98358.38;;;9.67;88.21
51245;BME280;37840;47.562;18.738;2023-04-01T00:37:07;98350.69;;;9.64;86.99
51245;BME280;37840;47.562;18.738;2023-04-01T00:39:34;98348.34;;;9.70;86.77
51245;BME280;37840;47.562;18.738;2023-04-01T00:42:02;98346.22;;;9.64;86.23
51245;BME280;37840;47.562;18.738;2023-04-01T00:44:33;98347.31;;;9.52;86.13
51245;BME280;37840;47.562;18.738;2023-04-01T00:47:00;98349.84;;;9.53;86.08
51245;BME280;37840;47.562;18.738;2023-04-01T00:49:51;98353.50;;;9.52;87.22
51245;BME280;37840;47.562;18.738;2023-04-01T00:52:19;98352.63;;;9.52;87.52
51245;BME280;37840;47.562;18.738;2023-04-01T00:54:50;98352.03;;;9.38;88.70
51245;BME280;37840;47.562;18.738;2023-04-01T00:57:31;98356.31;;;9.20;89.18
51245;BME280;37840;47.562;18.738;2023-04-01T01:00:00;98356.81;;;9.04;89.34
51245;BME280;37840;47.562;18.738;2023-04-01T01:02:26;98361.41;;;9.02;90.04
51245;BME280;37840;47.562;18.738;2023-04-01T01:04:52;98352.34;;;9.05;89.15
51245;BME280;37840;47.562;18.738;2023-04-01T01:07:36;98356.38;;;8.99;88.65
51245;BME280;37840;47.562;18.738;2023-04-01T01:13:10;98356.94;;;9.03;90.77
51245;BME280;37840;47.562;18.738;2023-04-01T01:15:44;98349.75;;;9.14;90.20
51245;BME280;37840;47.562;18.738;2023-04-01T01:37:14;98355.22;;;9.32;88.86
51245;BME280;37840;47.562;18.738;2023-04-01T01:39:44;98351.75;;;9.32;88.83
51245;BME280;37840;47.562;18.738;2023-04-01T01:42:15;98351.88;;;9.30;88.47
51245;BME280;37840;47.562;18.738;2023-04-01T01:44:44;98345.75;;;9.30;88.29
51245;BME280;37840;47.562;18.738;2023-04-01T01:47:13;98348.81;;;9.35;87.99
51245;BME280;37840;47.562;18.738;2023-04-01T01:49:41;98340.59;;;9.38;87.21
51245;BME280;37840;47.562;18.738;2023-04-01T01:52:08;98335.72;;;9.43;86.71
51245;BME280;37840;47.562;18.738;2023-04-01T01:54:34;98340.88;;;9.45;86.35
51245;BME280;37840;47.562;18.738;2023-04-01T01:57:08;98339.63;;;9.49;86.17
51245;BME280;37840;47.562;18.738;2023-04-01T01:59:37;98340.22;;;9.52;85.87
51245;BME280;37840;47.562;18.738;2023-04-01T02:02:06;98335.03;;;9.51;86.06
51245;BME280;37840;47.562;18.738;2023-04-01T02:04:39;98334.34;;;9.49;86.16
51245;BME280;37840;47.562;18.738;2023-04-01T02:07:14;98329.72;;;9.51;86.01
51245;BME280;37840;47.562;18.738;2023-04-01T02:09:42;98333.75;;;9.45;85.46
51245;BME280;37840;47.562;18.738;2023-04-01T02:12:11;98332.63;;;9.48;84.95
51245;BME280;37840;47.562;18.738;2023-04-01T02:15:03;98325.38;;;9.50;84.88
51245;BME280;37840;47.562;18.738;2023-04-01T02:17:33;98333.34;;;9.50;84.24
51245;BME280;37840;47.562;18.738;2023-04-01T02:20:06;98327.91;;;9.51;83.44
51245;BME280;37840;47.562;18.738;2023-04-01T02:22:38;98322.06;;;9.57;83.82
51245;BME280;37840;47.562;18.738;2023-04-01T02:25:10;98317.31;;;9.61;83.79
51245;BME280;37840;47.562;18.738;2023-04-01T02:27:39;98319.41;;;9.57;83.53
51245;BME280;37840;47.562;18.738;2023-04-01T02:30:06;98314.94;;;9.68;83.37
51245;BME280;37840;47.562;18.738;2023-04-01T02:32:33;98316.78;;;9.67;83.42
51245;BME280;37840;47.562;18.738;2023-04-01T02:35:01;98314.81;;;9.69;83.32
51245;BME280;37840;47.562;18.738;2023-04-01T02:37:31;98315.91;;;9.67;83.18
51245;BME280;37840;47.562;18.738;2023-04-01T02:40:02;98313.25;;;9.67;83.15
51245;BME280;37840;47.562;18.738;2023-04-01T02:42:28;98315.06;;;9.66;83.00
51245;BME280;37840;47.562;18.738;2023-04-01T02:44:54;98307.13;;;9.66;82.84
51245;BME280;37840;47.562;18.738;2023-04-01T02:47:20;98308.66;;;9.59;83.28
51245;BME280;37840;47.562;18.738;2023-04-01T02:49:46;98311.44;;;9.57;83.34
51245;BME280;37840;47.562;18.738;2023-04-01T02:52:12;98314.09;;;9.57;83.67
51245;BME280;37840;47.562;18.738;2023-04-01T02:54:38;98312.12;;;9.59;83.44
51245;BME280;37840;47.562;18.738;2023-04-01T02:57:04;98304.06;;;9.61;83.33
51245;BME280;37840;47.562;18.738;2023-04-01T02:59:30;98307.81;;;9.58;82.70
51245;BME280;37840;47.562;18.738;2023-04-01T03:01:56;98300.41;;;9.52;83.25
51245;BME280;37840;47.562;18.738;2023-04-01T03:04:21;98302.91;;;9.54;82.91
51245;BME280;37840;47.562;18.738;2023-04-01T03:06:47;98305.16;;;9.58;82.42
51245;BME280;37840;47.562;18.738;2023-04-01T03:09:13;98300.25;;;9.54;82.71
51245;BME280;37840;47.562;18.738;2023-04-01T03:11:40;98295.94;;;9.53;82.95
51245;BME280;37840;47.562;18.738;2023-04-01T03:14:06;98295.81;;;9.54;82.54
51245;BME280;37840;47.562;18.738;2023-04-01T03:16:32;98306.56;;;9.53;82.29
51245;BME280;37840;47.562;18.738;2023-04-01T03:18:58;98308.63;;;9.49;82.59
51245;BME280;37840;47.562;18.738;2023-04-01T03:21:25;98312.69;;;9.44;82.57
51245;BME280;37840;47.562;18.738;2023-04-01T03:23:52;98308.34;;;9.43;82.88
51245;BME280;37840;47.562;18.738;2023-04-01T03:26:18;98311.81;;;9.33;83.04
51245;BME280;37840;47.562;18.738;2023-04-01T03:28:44;98331.94;;;9.36;82.92
51245;BME280;37840;47.562;18.738;2023-04-01T03:31:10;98331.94;;;9.36;82.78
51245;BME280;37840;47.562;18.738;2023-04-01T03:33:36;98332.59;;;9.28;82.59
51245;BME280;37840;47.562;18.738;2023-04-01T03:36:03;98328.53;;;9.24;82.89
51245;BME280;37840;47.562;18.738;2023-04-01T03:38:35;98319.50;;;9.27;82.82
51245;BME280;37840;47.562;18.738;2023-04-01T03:41:01;98336.78;;;9.21;82.81
51245;BME280;37840;47.562;18.738;2023-04-01T03:43:27;98340.97;;;9.14;83.15
51245;BME280;37840;47.562;18.738;2023-04-01T03:45:53;98331.87;;;9.16;82.93
51245;BME280;37840;47.562;18.738;2023-04-01T03:48:20;98327.41;;;9.17;82.76
51245;BME280;37840;47.562;18.738;2023-04-01T03:50:46;98337.06;;;9.18;82.48
51245;BME280;37840;47.562;18.738;2023-04-01T03:53:13;98342.31;;;9.08;82.61
51245;BME280;37840;47.562;18.738;2023-04-01T03:55:39;98331.13;;;8.95;83.09
51245;BME280;37840;47.562;18.738;2023-04-01T03:58:05;98324.25;;;8.92;82.77
51245;BME280;37840;47.562;18.738;2023-04-01T04:00:32;98341.31;;;9.00;82.66
51245;BME280;37840;47.562;18.738;2023-04-01T04:02:58;98339.91;;;8.95;82.50
51245;BME280;37840;47.562;18.738;2023-04-01T04:05:25;98340.59;;;8.97;82.25
51245;BME280;37840;47.562;18.738;2023-04-01T04:07:52;98349.16;;;9.01;82.04
51245;BME280;37840;47.562;18.738;2023-04-01T04:10:18;98342.28;;;8.98;82.27
51245;BME280;37840;47.562;18.738;2023-04-01T04:12:44;98340.19;;;9.02;81.81
51245;BME280;37840;47.562;18.738;2023-04-01T04:15:10;98342.84;;;9.02;82.06
51245;BME280;37840;47.562;18.738;2023-04-01T04:17:37;98346.91;;;9.06;81.80
51245;BME280;37840;47.562;18.738;2023-04-01T04:20:03;98343.84;;;9.01;81.51
51245;BME280;37840;47.562;18.738;2023-04-01T04:22:29;98343.25;;;8.97;81.90
51245;BME280;37840;47.562;18.738;2023-04-01T04:24:55;98343.84;;;9.01;81.63
51245;BME280;37840;47.562;18.738;2023-04-01T04:27:21;98344.53;;;9.03;81.35
51245;BME280;37840;47.562;18.738;2023-04-01T04:29:47;98348.19;;;9.12;81.12
51245;BME280;37840;47.562;18.738;2023-04-01T04:32:13;98343.12;;;8.99;82.06
51245;BME280;37840;47.562;18.738;2023-04-01T04:34:39;98345.50;;;9.02;81.92
51245;BME280;37840;47.562;18.738;2023-04-01T04:37:05;98346.91;;;9.06;81.83
51245;BME280;37840;47.562;18.738;2023-04-01T04:39:31;98345.41;;;9.13;81.51
51245;BME280;37840;47.562;18.738;2023-04-01T04:41:57;98359.38;;;9.15;81.60
51245;BME280;37840;47.562;18.738;2023-04-01T04:44:23;98351.81;;;9.11;81.56
51245;BME280;37840;47.562;18.738;2023-04-01T04:46:48;98350.16;;;9.10;81.19
51245;BME280;37840;47.562;18.738;2023-04-01T04:49:14;98351.22;;;9.07;80.86
51245;BME280;37840;47.562;18.738;2023-04-01T04:51:40;98347.63;;;9.08;80.95
51245;BME280;37840;47.562;18.738;2023-04-01T04:54:07;98345.41;;;9.13;80.43
51245;BME280;37840;47.562;18.738;2023-04-01T04:56:33;98343.31;;;9.17;80.47
51245;BME280;37840;47.562;18.738;2023-04-01T04:58:59;98352.66;;;9.11;80.85
51245;BME280;37840;47.562;18.738;2023-04-01T05:01:25;98357.81;;;9.13;80.84
51245;BME280;37840;47.562;18.738;2023-04-01T05:03:51;98355.88;;;9.15;80.49
51245;BME280;37840;47.562;18.738;2023-04-01T05:06:18;98357.41;;;9.17;80.90
51245;BME280;37840;47.562;18.738;2023-04-01T05:08:44;98360.22;;;9.16;80.65
51245;BME280;37840;47.562;18.738;2023-04-01T05:11:14;98366.66;;;9.23;80.55
51245;BME280;37840;47.562;18.738;2023-04-01T05:13:40;98361.87;;;9.17;80.58
51245;BME280;37840;47.562;18.738;2023-04-01T05:16:12;98362.41;;;9.11;80.44
51245;BME280;37840;47.562;18.738;2023-04-01T05:18:38;98361.53;;;9.01;80.75
51245;BME280;37840;47.562;18.738;2023-04-01T05:21:06;98358.34;;;8.97;80.92
51245;BME280;37840;47.562;18.738;2023-04-01T05:23:35;98358.59;;;8.94;81.42
51245;BME280;37840;47.562;18.738;2023-04-01T05:26:05;98355.09;;;8.93;81.66
51245;BME280;37840;47.562;18.738;2023-04-01T05:28:32;98360.94;;;8.87;82.91
51245;BME280;37840;47.562;18.738;2023-04-01T05:30:59;98360.66;;;8.90;82.97
51245;BME280;37840;47.562;18.738;2023-04-01T05:33:27;98356.22;;;8.91;83.13
51245;BME280;37840;47.562;18.738;2023-04-01T05:35:53;98364.47;;;8.97;83.04
51245;BME280;37840;47.562;18.738;2023-04-01T05:38:19;98371.72;;;8.95;82.76
51245;BME280;37840;47.562;18.738;2023-04-01T05:40:45;98377.84;;;8.96;83.64
51245;BME280;37840;47.562;18.738;2023-04-01T05:43:11;98379.03;;;9.03;83.80
51245;BME280;37840;47.562;18.738;2023-04-01T05:45:37;98370.37;;;9.11;83.44
51245;BME280;37840;47.562;18.738;2023-04-01T05:48:04;98379.91;;;9.23;82.98
51245;BME280;37840;47.562;18.738;2023-04-01T05:50:30;98372.00;;;9.33;82.67
51245;BME280;37840;47.562;18.738;2023-04-01T05:52:57;98377.75;;;9.38;83.08
51245;BME280;37840;47.562;18.738;2023-04-01T05:55:23;98383.47;;;9.33;83.36
51245;BME280;37840;47.562;18.738;2023-04-01T05:57:49;98373.31;;;9.48;83.33
51245;BME280;37840;47.562;18.738;2023-04-01T06:00:16;98383.50;;;9.63;82.57
51245;BME280;37840;47.562;18.738;2023-04-01T06:02:43;98368.75;;;9.70;82.54
51245;BME280;37840;47.562;18.738;2023-04-01T06:05:22;98367.47;;;9.84;82.76
51245;BME280;37840;47.562;18.738;2023-04-01T06:07:51;98359.12;;;9.98;82.07
51245;BME280;37840;47.562;18.738;2023-04-01T06:10:21;98361.75;;;10.17;82.91
51245;BME280;37840;47.562;18.738;2023-04-01T06:15:44;98361.34;;;10.61;81.65
51245;BME280;37840;47.562;18.738;2023-04-01T06:26:36;98359.06;;;11.87;72.14
51245;BME280;37840;47.562;18.738;2023-04-01T06:36:57;98363.88;;;14.91;62.22
51245;BME280;37840;47.562;18.738;2023-04-01T06:56:02;98368.72;;;14.95;60.27
51245;BME280;37840;47.562;18.738;2023-04-01T06:58:52;98365.75;;;15.77;57.03
51245;BME280;37840;47.562;18.738;2023-04-01T07:01:38;98361.91;;;16.64;53.55
51245;BME280;37840;47.562;18.738;2023-04-01T07:04:16;98354.09;;;17.81;50.62
51245;BME280;37840;47.562;18.738;2023-04-01T07:15:36;98368.56;;;20.06;44.12
51245;BME280;37840;47.562;18.738;2023-04-01T07:18:11;98362.41;;;19.29;44.80
51245;BME280;37840;47.562;18.738;2023-04-01T07:20:38;98355.72;;;18.83;45.16
51245;BME280;37840;47.562;18.738;2023-04-01T07:23:10;98358.41;;;18.62;45.38
51245;BME280;37840;47.562;18.738;2023-04-01T07:25:42;98352.72;;;18.28;47.74
51245;BME280;37840;47.562;18.738;2023-04-01T07:28:14;98357.13;;;18.14;47.39
51245;BME280;37840;47.562;18.738;2023-04-01T07:30:56;98355.31;;;18.15;47.44
51245;BME280;37840;47.562;18.738;2023-04-01T07:42:09;98359.53;;;17.07;52.21
51245;BME280;37840;47.562;18.738;2023-04-01T07:44:48;98366.00;;;16.60;52.74
51245;BME280;37840;47.562;18.738;2023-04-01T07:52:48;98378.72;;;15.97;54.87
51245;BME280;37840;47.562;18.738;2023-04-01T07:55:33;98377.25;;;15.46;53.79
51245;BME280;37840;47.562;18.738;2023-04-01T08:11:55;98384.66;;;13.64;59.98
51245;BME280;37840;47.562;18.738;2023-04-01T08:22:26;98384.78;;;13.28;62.94
51245;BME280;37840;47.562;18.738;2023-04-01T08:24:57;98385.06;;;13.35;62.52
51245;BME280;37840;47.562;18.738;2023-04-01T08:27:48;98388.34;;;13.29;62.57
51245;BME280;37840;47.562;18.738;2023-04-01T08:33:01;98384.87;;;13.36;61.88
51245;BME280;37840;47.562;18.738;2023-04-01T08:35:46;98380.41;;;13.45;62.94
51245;BME280;37840;47.562;18.738;2023-04-01T08:38:19;98385.81;;;13.61;64.74
51245;BME280;37840;47.562;18.738;2023-04-01T08:40:55;98384.22;;;13.85;63.60
51245;BME280;37840;47.562;18.738;2023-04-01T08:52:35;98386.31;;;14.81;60.42
51245;BME280;37840;47.562;18.738;2023-04-01T09:00:27;98380.41;;;15.02;59.25
51245;BME280;37840;47.562;18.738;2023-04-01T09:03:15;98383.59;;;14.98;57.44
51245;BME280;37840;47.562;18.738;2023-04-01T09:05:58;98379.16;;;15.29;57.45
51245;BME280;37840;47.562;18.738;2023-04-01T09:20:07;98379.50;;;16.05;54.86
51245;BME280;37840;47.562;18.738;2023-04-01T09:28:36;98380.91;;;14.98;57.51
51245;BME280;37840;47.562;18.738;2023-04-01T09:37:34;98370.75;;;14.77;57.03
51245;BME280;37840;47.562;18.738;2023-04-01T09:43:21;98383.44;;;14.34;57.55
51245;BME280;37840;47.562;18.738;2023-04-01T10:14:00;98378.69;;;13.78;60.42
51245;BME280;37840;47.562;18.738;2023-04-01T10:16:58;98385.72;;;13.87;61.66
51245;BME280;37840;47.562;18.738;2023-04-01T10:50:03;98377.44;;;14.48;58.82
51245;BME280;37840;47.562;18.738;2023-04-01T11:06:57;98377.44;;;14.81;60.08
51245;BME280;37840;47.562;18.738;2023-04-01T11:36:39;98378.97;;;14.59;57.19
51245;BME280;37840;47.562;18.738;2023-04-01T12:01:58;98383.28;;;14.93;58.18
51245;BME280;37840;47.562;18.738;2023-04-01T12:10:32;98376.22;;;15.08;55.32
51245;BME280;37840;47.562;18.738;2023-04-01T12:13:04;98380.06;;;15.05;55.62
51245;BME280;37840;47.562;18.738;2023-04-01T12:15:58;98379.72;;;15.08;56.33
51245;BME280;37840;47.562;18.738;2023-04-01T12:26:52;98381.12;;;14.80;56.56
51245;BME280;37840;47.562;18.738;2023-04-01T12:29:41;98382.31;;;14.69;57.02
51245;BME280;37840;47.562;18.738;2023-04-01T12:45:27;98375.47;;;14.66;56.09
51245;BME280;37840;47.562;18.738;2023-04-01T12:54:31;98373.91;;;14.88;57.16
51245;BME280;37840;47.562;18.738;2023-04-01T12:57:27;98379.78;;;14.92;55.93
51245;BME280;37840;47.562;18.738;2023-04-01T13:00:03;98382.31;;;14.85;55.57
51245;BME280;37840;47.562;18.738;2023-04-01T13:05:23;98380.09;;;14.89;56.73
51245;BME280;37840;47.562;18.738;2023-04-01T13:43:26;98434.03;;;12.99;69.78
51245;BME280;37840;47.562;18.738;2023-04-01T13:51:49;98419.81;;;12.73;71.44
51245;BME280;37840;47.562;18.738;2023-04-01T14:11:00;98397.88;;;13.05;72.76
51245;BME280;37840;47.562;18.738;2023-04-01T14:13:41;98401.94;;;13.17;71.53
51245;BME280;37840;47.562;18.738;2023-04-01T14:16:26;98391.72;;;13.31;71.36
51245;BME280;37840;47.562;18.738;2023-04-01T14:19:24;98387.38;;;13.38;71.07
51245;BME280;37840;47.562;18.738;2023-04-01T14:22:13;98388.97;;;13.57;71.50
51245;BME280;37840;47.562;18.738;2023-04-01T14:25:29;98388.31;;;13.63;69.83
51245;BME280;37840;47.562;18.738;2023-04-01T14:47:04;98370.56;;;14.21;65.93
51245;BME280;37840;47.562;18.738;2023-04-01T14:49:46;98377.91;;;14.19;63.15
51245;BME280;37840;47.562;18.738;2023-04-01T14:52:17;98374.09;;;14.13;64.14
51245;BME280;37840;47.562;18.738;2023-04-01T14:54:48;98374.09;;;14.13;61.15
51245;BME280;37840;47.562;18.738;2023-04-01T15:00:13;98370.53;;;14.04;59.51
51245;BME280;37840;47.562;18.738;2023-04-01T15:18:44;98378.37;;;13.81;57.40
51245;BME280;37840;47.562;18.738;2023-04-01T15:21:37;98377.19;;;13.76;57.56
51245;BME280;37840;47.562;18.738;2023-04-01T15:24:22;98375.69;;;13.73;58.09
51245;BME280;37840;47.562;18.738;2023-04-01T15:38:29;98385.69;;;13.71;58.25
51245;BME280;37840;47.562;18.738;2023-04-01T15:43:50;98385.66;;;13.63;58.47
51245;BME280;37840;47.562;18.738;2023-04-01T15:52:07;98381.28;;;13.54;57.32
51245;BME280;37840;47.562;18.738;2023-04-01T16:00:31;98396.56;;;13.35;58.51
51245;BME280;37840;47.562;18.738;2023-04-01T16:14:44;98409.09;;;13.43;59.18
51245;BME280;37840;47.562;18.738;2023-04-01T16:17:29;98409.13;;;13.51;58.93
51245;BME280;37840;47.562;18.738;2023-04-01T16:28:16;98421.25;;;13.72;58.51
51245;BME280;37840;47.562;18.738;2023-04-01T16:30:59;98421.41;;;13.70;59.01
51245;BME280;37840;47.562;18.738;2023-04-01T16:39:08;98421.91;;;13.74;57.88
51245;BME280;37840;47.562;18.738;2023-04-01T16:44:53;98425.56;;;13.64;58.46
51245;BME280;37840;47.562;18.738;2023-04-01T16:53:09;98437.19;;;13.55;57.96
51245;BME280;37840;47.562;18.738;2023-04-01T16:58:25;98445.16;;;13.47;58.79
51245;BME280;37840;47.562;18.738;2023-04-01T17:01:05;98443.34;;;13.48;58.55
51245;BME280;37840;47.562;18.738;2023-04-01T17:03:44;98454.19;;;13.46;58.10
51245;BME280;37840;47.562;18.738;2023-04-01T17:06:33;98448.66;;;13.39;58.78
51245;BME280;37840;47.562;18.738;2023-04-01T17:09:53;98451.81;;;13.35;58.45
51245;BME280;37840;47.562;18.738;2023-04-01T17:12:25;98453.09;;;13.31;58.53
51245;BME280;37840;47.562;18.738;2023-04-01T17:15:21;98460.16;;;13.14;59.43
51245;BME280;37840;47.562;18.738;2023-04-01T17:18:05;98461.03;;;12.96;59.88
51245;BME280;37840;47.562;18.738;2023-04-01T17:21:02;98461.19;;;12.95;59.87
51245;BME280;37840;47.562;18.738;2023-04-01T17:23:36;98460.09;;;12.88;60.47
51245;BME280;37840;47.562;18.738;2023-04-01T17:41:57;98489.09;;;12.47;62.30
51245;BME280;37840;47.562;18.738;2023-04-01T17:52:37;98494.09;;;12.14;63.65
51245;BME280;37840;47.562;18.738;2023-04-01T17:57:51;98501.00;;;12.07;63.74
51245;BME280;37840;47.562;18.738;2023-04-01T18:00:39;98500.88;;;12.08;63.55
51245;BME280;37840;47.562;18.738;2023-04-01T18:06:21;98509.22;;;11.86;64.02
51245;BME280;37840;47.562;18.738;2023-04-01T18:11:43;98522.84;;;11.82;64.05
51245;BME280;37840;47.562;18.738;2023-04-01T18:22:53;98524.31;;;11.67;65.33
51245;BME280;37840;47.562;18.738;2023-04-01T18:26:06;98529.78;;;11.66;65.50
51245;BME280;37840;47.562;18.738;2023-04-01T18:28:45;98537.44;;;11.69;65.28
51245;BME280;37840;47.562;18.738;2023-04-01T18:31:19;98541.41;;;11.65;65.67
51245;BME280;37840;47.562;18.738;2023-04-01T18:36:55;98542.25;;;11.65;65.76
51245;BME280;37840;47.562;18.738;2023-04-01T18:42:05;98557.03;;;11.50;66.58
51245;BME280;37840;47.562;18.738;2023-04-01T18:44:41;98558.28;;;11.36;67.15
51245;BME280;37840;47.562;18.738;2023-04-01T18:49:48;98564.91;;;11.12;68.38
51245;BME280;37840;47.562;18.738;2023-04-01T18:52:22;98562.50;;;11.09;68.37
51245;BME280;37840;47.562;18.738;2023-04-01T18:57:49;98570.53;;;10.99;68.79
51245;BME280;37840;47.562;18.738;2023-04-01T19:00:26;98573.19;;;10.99;68.66
51245;BME280;37840;47.562;18.738;2023-04-01T19:03:00;98574.59;;;11.04;68.14
51245;BME280;37840;47.562;18.738;2023-04-01T19:05:31;98577.94;;;10.96;68.46
51245;BME280;37840;47.562;18.738;2023-04-01T19:08:19;98577.41;;;10.92;68.74
51245;BME280;37840;47.562;18.738;2023-04-01T19:11:17;98573.34;;;10.88;68.85
51245;BME280;37840;47.562;18.738;2023-04-01T19:24:10;98578.50;;;10.90;68.61
51245;BME280;37840;47.562;18.738;2023-04-01T19:32:08;98570.94;;;10.85;68.63
51245;BME280;37840;47.562;18.738;2023-04-01T19:50:53;98584.78;;;10.79;68.85
51245;BME280;37840;47.562;18.738;2023-04-01T19:53:32;98582.56;;;10.84;68.82
51245;BME280;37840;47.562;18.738;2023-04-01T19:56:17;98587.16;;;10.72;69.17
51245;BME280;37840;47.562;18.738;2023-04-01T20:15:04;98595.44;;;10.69;69.30
51245;BME280;37840;47.562;18.738;2023-04-01T20:17:45;98598.34;;;10.66;69.38
51245;BME280;37840;47.562;18.738;2023-04-01T20:33:37;98612.19;;;10.50;69.57
51245;BME280;37840;47.562;18.738;2023-04-01T20:39:04;98611.06;;;10.53;69.06
51245;BME280;37840;47.562;18.738;2023-04-01T20:47:30;98610.47;;;10.49;67.59
51245;BME280;37840;47.562;18.738;2023-04-01T20:50:24;98612.72;;;10.44;66.81
51245;BME280;37840;47.562;18.738;2023-04-01T21:14:31;98642.06;;;10.33;65.50
51245;BME280;37840;47.562;18.738;2023-04-01T21:27:59;98649.06;;;10.13;66.88
51245;BME280;37840;47.562;18.738;2023-04-01T21:44:10;98645.34;;;9.94;68.18
51245;BME280;37840;47.562;18.738;2023-04-01T22:05:31;98645.44;;;9.83;69.78
51245;BME280;37840;47.562;18.738;2023-04-01T22:08:11;98653.78;;;9.78;70.22
51245;BME280;37840;47.562;18.738;2023-04-01T22:13:35;98656.62;;;9.87;70.26
51245;BME280;37840;47.562;18.738;2023-04-01T22:16:19;98659.94;;;9.79;70.62
51245;BME280;37840;47.562;18.738;2023-04-01T22:21:41;98663.31;;;9.81;70.87
51245;BME280;37840;47.562;18.738;2023-04-01T22:24:26;98664.41;;;9.78;71.15
51245;BME280;37840;47.562;18.738;2023-04-01T22:32:28;98656.56;;;9.77;71.32
51245;BME280;37840;47.562;18.738;2023-04-01T22:35:06;98654.19;;;9.74;71.74
51245;BME280;37840;47.562;18.738;2023-04-01T22:37:48;98658.72;;;9.62;72.24
51245;BME280;37840;47.562;18.738;2023-04-01T22:40:25;98660.53;;;9.62;72.41
51245;BME280;37840;47.562;18.738;2023-04-01T22:43:06;98671.53;;;9.57;72.73
51245;BME280;37840;47.562;18.738;2023-04-01T22:45:48;98666.66;;;9.62;72.53
51245;BME280;37840;47.562;18.738;2023-04-01T22:48:41;98673.91;;;9.60;72.59
51245;BME280;37840;47.562;18.738;2023-04-01T22:56:28;98682.81;;;9.70;72.41
51245;BME280;37840;47.562;18.738;2023-04-01T22:59:26;98680.22;;;9.59;72.92
51245;BME280;37840;47.562;18.738;2023-04-01T23:02:08;98678.19;;;9.51;73.19
51245;BME280;37840;47.562;18.738;2023-04-01T23:04:42;98684.34;;;9.52;73.24
51245;BME280;37840;47.562;18.738;2023-04-01T23:10:40;98690.63;;;9.51;73.34
51245;BME280;37840;47.562;18.738;2023-04-01T23:13:16;98697.66;;;9.41;73.96
51245;BME280;37840;47.562;18.738;2023-04-01T23:15:44;98696.00;;;9.39;73.88
51245;BME280;37840;47.562;18.738;2023-04-01T23:18:19;98705.56;;;9.31;74.26
51245;BME280;37840;47.562;18.738;2023-04-01T23:26:32;98720.94;;;9.37;74.13
51245;BME280;37840;47.562;18.738;2023-04-01T23:29:00;98726.78;;;9.31;74.49
51245;BME280;37840;47.562;18.738;2023-04-01T23:31:28;98728.19;;;9.35;74.17
51245;BME280;37840;47.562;18.738;2023-04-01T23:33:58;98728.56;;;9.30;74.53
51245;BME280;37840;47.562;18.738;2023-04-01T23:36:25;98734.97;;;9.28;74.67
51245;BME280;37840;47.562;18.738;2023-04-01T23:38:52;98730.16;;;9.22;75.01
51245;BME280;37840;47.562;18.738;2023-04-01T23:43:59;98744.41;;;9.21;74.90
51245;BME280;37840;47.562;18.738;2023-04-01T23:46:26;98744.66;;;9.17;75.18
51245;BME280;37840;47.562;18.738;2023-04-01T23:48:54;98750.69;;;9.19;75.08
51245;BME280;37840;47.562;18.738;2023-04-01T23:51:22;98753.81;;;9.25;74.91
51245;BME280;37840;47.562;18.738;2023-04-01T23:54:11;98758.84;;;9.28;74.74
51245;BME280;37840;47.562;18.738;2023-04-01T23:56:43;98756.69;;;9.33;74.39
51245;BME280;37840;47.562;18.738;2023-04-01T23:59:14;98754.50;;;9.38;74.16
